Portada
METAR-TAF:

METAR-TAF

Aeroports :

Madrid-Getafe, Espanya

latitud: 40-18N, longitud: 003-43W, altitud: 620 m

Observació

L'informe es va fer fa 8 hores i 30 minuts, a les 20:00 UTC
Vent 4 kt del Oest/Sud-Oest
Temperatura 11°C
Humitat 76%
Pressió 1011 hPa
Visibilitat 10 km o més
sense núvols per sota de 1500 mi sense presència de cumulonimbus.

METAR: LEGT 132000Z 25004KT CAVOK 11/07 Q1011

Hora: 05:30 (04:30 UTC)

Pronòstic

L'informe es va fer fa 2 hores i 30 minuts, a les 02:00 UTC
Pronòstic vàlid del 14 a les 03 UTC al 14 a les 12 UTC
Vent 12 kt del Oest/Sud-Oest
Visibilitat 10 km o més
sense núvols per sota de 1500 mi sense presència de cumulonimbus.
Probabilitat 40% :
Temporalment
l' 14 a les 05 UTC al 14 a les 12 UTC
Visibilitat: 3000 m
pluja
Temporalment
l' 14 a les 05 UTC al 14 a les 12 UTC
Vent 20 kt del Sud-Oest amb ràfegues de 30 kt

TAF: LEGT 140200Z 1403/1412 24012KT CAVOK PROB40 TEMPO 1405/1412 3000 RA TEMPO 1405/1412 23020G30KT

Observacions i pronòstics meteorològics de més de 4000 aeroports (METAR i TAF).

Les estacions disponibles són els punts grocs i vermells al mapa.

Posi el ratolí al punt desitjat per veure el nom de l'estació.

Feu clic per veure les observacions i els pronòstics meteorològics.

Per canviar el mapa: feu clic els botons verds amb una creu de color negre per apropar; al botó verd amb un guió per allunyar la imatge; o en les fletxes verdes per a mapes adjacents.


METAR-TAF: